createdAt,value
2022-11-14T00:00:13.002Z,6.39
2022-11-14T00:01:12.871Z,6.51
2022-11-14T00:02:09.966Z,7.13
2022-11-14T00:03:09.394Z,7.10
2022-11-14T00:04:06.152Z,7.55
2022-11-14T00:05:03.189Z,6.33
2022-11-14T00:05:59.924Z,7.43
2022-11-14T00:06:56.679Z,7.56
2022-11-14T00:07:53.501Z,7.38
2022-11-14T00:08:50.204Z,6.12
2022-11-14T00:09:46.949Z,7.15
2022-11-14T00:10:46.891Z,6.80
2022-11-14T00:11:43.592Z,6.73
2022-11-14T00:16:59.909Z,5.86
2022-11-14T00:17:56.650Z,6.00
2022-11-14T00:18:53.541Z,6.13
2022-11-14T00:19:50.286Z,6.32
2022-11-14T00:20:51.959Z,6.35
2022-11-14T00:21:48.721Z,6.54
2022-11-14T00:22:45.436Z,6.07
2022-11-14T00:23:42.140Z,6.15
2022-11-14T00:24:38.887Z,6.35
2022-11-14T00:25:35.613Z,6.36
2022-11-14T00:26:32.345Z,6.67
2022-11-14T00:27:29.141Z,6.73
2022-11-14T00:28:25.846Z,6.85
2022-11-14T00:29:22.824Z,6.70
2022-11-14T00:30:19.594Z,5.96
2022-11-14T00:31:16.351Z,6.21
2022-11-14T00:32:13.095Z,6.31
2022-11-14T00:33:09.825Z,6.44
2022-11-14T00:34:06.998Z,6.52
2022-11-14T00:35:03.784Z,6.24
2022-11-14T00:36:00.656Z,6.14
2022-11-14T00:36:57.828Z,5.95
2022-11-14T00:37:54.537Z,4.85
2022-11-14T00:38:54.196Z,6.03
2022-11-14T00:39:50.953Z,5.66
2022-11-14T00:40:47.767Z,6.31
2022-11-14T00:41:44.488Z,6.38
2022-11-14T00:42:42.109Z,4.72
2022-11-14T00:43:38.830Z,6.68
2022-11-14T00:44:35.637Z,6.18
2022-11-14T00:45:32.385Z,6.17
2022-11-14T00:46:29.106Z,5.26
2022-11-14T00:47:25.829Z,5.98
2022-11-14T00:48:22.691Z,6.01
2022-11-14T00:49:19.427Z,5.91
2022-11-14T00:50:16.934Z,5.54
2022-11-14T00:51:13.690Z,6.57
2022-11-14T00:52:10.466Z,6.42
2022-11-14T00:53:07.321Z,5.93
2022-11-14T00:54:04.131Z,6.06
2022-11-14T00:55:00.996Z,5.10
2022-11-14T00:55:57.790Z,6.20
2022-11-14T00:56:54.544Z,6.46
2022-11-14T00:57:51.242Z,6.43
2022-11-14T00:58:48.035Z,6.32
2022-11-14T00:59:44.760Z,6.02
2022-11-14T01:00:41.681Z,5.67
2022-11-14T01:01:38.489Z,5.25
2022-11-14T01:02:35.208Z,5.38
2022-11-14T01:03:32.486Z,4.98
2022-11-14T01:04:29.184Z,5.10
2022-11-14T01:05:27.301Z,4.77
2022-11-14T01:06:24.004Z,5.61
2022-11-14T01:07:20.705Z,5.80
2022-11-14T01:08:19.267Z,5.75
2022-11-14T01:09:16.426Z,4.85
2022-11-14T01:10:13.178Z,5.63
2022-11-14T01:11:16.144Z,5.82
2022-11-14T01:12:12.921Z,5.73
2022-11-14T01:13:10.200Z,5.84
2022-11-14T01:14:08.247Z,5.77
2022-11-14T01:15:05.434Z,5.46
2022-11-14T01:16:02.232Z,5.19
2022-11-14T01:16:58.924Z,5.27
2022-11-14T01:17:55.738Z,5.21
2022-11-14T01:18:52.558Z,5.27
2022-11-14T01:19:49.233Z,5.75
2022-11-14T01:20:47.326Z,5.49
2022-11-14T01:21:44.083Z,5.54
2022-11-14T01:22:40.806Z,5.49
2022-11-14T01:23:37.693Z,5.13
2022-11-14T01:24:35.110Z,5.79
2022-11-14T01:25:34.033Z,6.04
2022-11-14T01:26:30.782Z,5.76
2022-11-14T01:27:30.978Z,5.71
2022-11-14T01:28:28.107Z,6.13
2022-11-14T01:29:25.008Z,6.23
2022-11-14T01:30:21.778Z,5.56
2022-11-14T01:31:21.346Z,6.06
2022-11-14T01:32:18.208Z,6.12
2022-11-14T01:33:14.972Z,4.97
2022-11-14T01:34:11.712Z,5.66
2022-11-14T01:35:08.660Z,5.48
2022-11-14T01:36:06.783Z,5.31
2022-11-14T01:37:03.534Z,5.70
2022-11-14T01:38:01.268Z,5.33
2022-11-14T01:38:58.055Z,5.64
2022-11-14T01:39:54.806Z,5.19
2022-11-14T01:40:51.544Z,4.50
2022-11-14T01:41:48.243Z,2.69
2022-11-14T01:43:19.045Z,5.79
2022-11-14T01:44:18.244Z,6.01
2022-11-14T01:45:56.435Z,5.59
2022-11-14T01:46:57.149Z,5.51
2022-11-14T01:47:53.909Z,5.36
2022-11-14T01:49:05.255Z,5.75
2022-11-14T01:50:06.108Z,5.67
2022-11-14T01:51:18.982Z,4.80
2022-11-14T01:52:25.926Z,5.41
2022-11-14T01:53:23.747Z,4.30
2022-11-14T01:54:28.093Z,4.49
2022-11-14T01:55:24.874Z,5.55
2022-11-14T01:56:29.881Z,5.19
2022-11-14T01:57:40.870Z,4.94
2022-11-14T01:58:42.322Z,4.87
2022-11-14T01:59:45.001Z,4.57
2022-11-14T02:00:43.196Z,4.54
2022-11-14T02:01:47.731Z,4.98
2022-11-14T02:02:44.725Z,4.85
2022-11-14T02:03:47.005Z,3.61
2022-11-14T02:04:50.686Z,4.12
2022-11-14T02:05:50.325Z,5.12
2022-11-14T02:06:49.138Z,4.72
2022-11-14T02:07:46.108Z,4.92
2022-11-14T02:08:44.800Z,5.09
2022-11-14T02:09:47.222Z,4.73
2022-11-14T02:10:43.995Z,5.01
2022-11-14T02:11:45.816Z,5.16
2022-11-14T02:12:43.254Z,3.92
2022-11-14T02:13:40.197Z,5.12
2022-11-14T02:14:38.511Z,4.98
2022-11-14T02:15:36.464Z,5.32
2022-11-14T02:16:33.696Z,5.25
2022-11-14T02:17:31.364Z,4.92
2022-11-14T02:18:28.499Z,4.56
2022-11-14T02:19:25.628Z,4.81
2022-11-14T02:20:32.556Z,4.98
2022-11-14T02:21:29.261Z,4.85
2022-11-14T02:22:26.224Z,4.89
2022-11-14T02:23:28.169Z,5.02
2022-11-14T02:24:24.856Z,4.71
2022-11-14T02:25:21.857Z,4.87
2022-11-14T02:26:20.579Z,4.89
2022-11-14T02:27:17.551Z,5.17
2022-11-14T02:28:14.271Z,5.15
2022-11-14T02:29:11.703Z,5.42
2022-11-14T02:30:12.595Z,5.45
2022-11-14T02:31:09.354Z,5.44
2022-11-14T02:32:10.648Z,5.60
2022-11-14T02:33:11.697Z,5.49
2022-11-14T02:34:08.701Z,5.93
2022-11-14T02:35:05.782Z,5.67
2022-11-14T02:36:02.498Z,5.31
2022-11-14T02:36:59.328Z,4.94
2022-11-14T02:37:56.139Z,5.29
2022-11-14T02:38:52.906Z,4.24
2022-11-14T02:39:49.627Z,4.87
2022-11-14T02:40:46.431Z,5.06
2022-11-14T02:41:43.337Z,4.08
2022-11-14T02:42:40.137Z,4.17
2022-11-14T02:43:36.857Z,4.68
2022-11-14T02:44:33.596Z,4.70
2022-11-14T02:45:30.377Z,4.65
2022-11-14T02:46:27.192Z,5.23
2022-11-14T02:47:25.028Z,4.07
2022-11-14T02:48:21.840Z,4.75
2022-11-14T02:49:18.547Z,4.57
2022-11-14T02:50:15.551Z,3.78
2022-11-14T02:51:12.282Z,4.62
2022-11-14T02:52:09.063Z,4.79
2022-11-14T02:53:05.794Z,4.10
2022-11-14T02:54:02.617Z,5.21
2022-11-14T02:54:59.366Z,5.32
2022-11-14T02:55:56.086Z,5.25
2022-11-14T02:56:52.906Z,3.31
2022-11-14T02:57:49.653Z,4.32
2022-11-14T02:58:46.395Z,5.34
2022-11-14T02:59:43.102Z,3.88
2022-11-14T03:00:59.275Z,4.91
2022-11-14T03:01:56.606Z,4.09
2022-11-14T03:02:54.237Z,4.98
2022-11-14T03:03:51.014Z,5.25
2022-11-14T03:04:47.729Z,4.20
2022-11-14T03:05:44.450Z,4.67
2022-11-14T03:06:41.209Z,4.46
2022-11-14T03:07:38.034Z,4.75
2022-11-14T03:08:35.119Z,4.98
2022-11-14T03:09:31.829Z,4.58
2022-11-14T03:10:28.585Z,4.55
2022-11-14T03:11:25.439Z,3.71
2022-11-14T03:12:22.165Z,4.63
2022-11-14T03:13:18.925Z,4.87
2022-11-14T03:14:15.628Z,4.90
2022-11-14T03:15:12.469Z,4.57
2022-11-14T03:16:12.848Z,4.59
2022-11-14T03:17:09.615Z,4.51
2022-11-14T03:18:06.348Z,4.71
2022-11-14T03:19:03.543Z,4.77
2022-11-14T03:20:00.704Z,4.67
2022-11-14T03:20:57.417Z,4.87
2022-11-14T03:21:54.147Z,4.81
2022-11-14T03:22:50.841Z,4.32
2022-11-14T03:23:47.865Z,4.60
2022-11-14T03:24:44.573Z,4.33
2022-11-14T03:25:41.350Z,4.70
2022-11-14T03:26:38.706Z,4.62
2022-11-14T03:27:35.416Z,4.89
2022-11-14T03:28:32.433Z,4.31
2022-11-14T03:29:29.328Z,4.29
2022-11-14T03:30:26.134Z,4.74
2022-11-14T03:31:22.938Z,4.64
2022-11-14T03:32:19.770Z,4.39
2022-11-14T03:33:16.494Z,4.44
2022-11-14T03:34:13.335Z,3.63
2022-11-14T03:35:10.912Z,4.48
2022-11-14T03:36:08.509Z,4.83
2022-11-14T03:37:05.384Z,4.75
2022-11-14T03:38:02.102Z,4.69
2022-11-14T03:38:58.908Z,4.68
2022-11-14T03:39:55.681Z,4.58
2022-11-14T03:40:52.700Z,4.40
2022-11-14T03:41:49.413Z,4.63
2022-11-14T03:42:46.170Z,5.31
2022-11-14T03:43:42.973Z,5.27
2022-11-14T03:44:39.949Z,5.26
2022-11-14T03:45:37.898Z,5.27
2022-11-14T03:46:34.651Z,5.19
2022-11-14T03:47:31.384Z,5.05
2022-11-14T03:48:30.367Z,4.59
2022-11-14T03:49:27.408Z,5.06
2022-11-14T03:50:24.163Z,4.05
2022-11-14T03:51:22.573Z,4.77
2022-11-14T03:52:19.295Z,5.39
2022-11-14T03:53:15.995Z,5.02
2022-11-14T03:54:12.801Z,5.51
2022-11-14T03:55:09.666Z,5.05
2022-11-14T03:56:06.691Z,5.72
2022-11-14T03:57:03.670Z,4.41
2022-11-14T03:58:00.422Z,5.11
2022-11-14T03:58:57.182Z,4.61
2022-11-14T03:59:53.921Z,4.91
2022-11-14T04:00:50.717Z,5.21
2022-11-14T04:01:48.875Z,5.73
2022-11-14T04:02:45.654Z,5.75
2022-11-14T04:03:42.473Z,5.01
2022-11-14T04:04:39.210Z,5.84
2022-11-14T04:05:36.047Z,4.90
2022-11-14T04:06:32.790Z,4.96
2022-11-14T04:07:29.693Z,4.63
2022-11-14T04:08:26.522Z,4.81
2022-11-14T04:09:23.262Z,4.71
2022-11-14T04:10:20.833Z,4.39
2022-11-14T04:11:17.973Z,4.84
2022-11-14T04:12:15.997Z,5.05
2022-11-14T04:13:12.897Z,5.12
2022-11-14T04:14:10.747Z,5.03
2022-11-14T04:15:07.863Z,4.82
2022-11-14T04:16:04.901Z,5.16
2022-11-14T04:17:01.658Z,5.29
2022-11-14T04:17:58.463Z,5.11
2022-11-14T04:18:55.477Z,5.62
2022-11-14T04:19:52.190Z,5.74
2022-11-14T04:20:48.897Z,5.42
2022-11-14T04:21:45.596Z,2.19
2022-11-14T04:22:42.334Z,4.63
2022-11-14T04:23:39.106Z,4.86
2022-11-14T04:24:35.851Z,4.99
2022-11-14T04:25:32.581Z,4.89
2022-11-14T04:26:29.306Z,3.90
2022-11-14T04:27:26.058Z,5.32
2022-11-14T04:28:22.777Z,5.06
2022-11-14T04:29:19.551Z,4.61
2022-11-14T04:30:16.507Z,4.72
2022-11-14T04:31:13.216Z,5.35
2022-11-14T04:32:10.008Z,5.18
2022-11-14T04:33:06.728Z,5.11
2022-11-14T04:34:03.451Z,4.64
2022-11-14T04:35:00.182Z,4.87
2022-11-14T04:35:56.913Z,5.36
2022-11-14T04:36:53.695Z,4.78
2022-11-14T04:37:50.443Z,5.93
2022-11-14T04:38:47.177Z,6.40
2022-11-14T04:39:43.884Z,6.31
2022-11-14T04:40:40.628Z,5.73
2022-11-14T04:41:37.353Z,5.78
2022-11-14T04:42:34.073Z,5.97
2022-11-14T04:43:30.775Z,5.80
2022-11-14T04:44:27.461Z,5.25
2022-11-14T04:45:24.313Z,5.85
2022-11-14T04:46:21.285Z,5.55
2022-11-14T04:47:18.090Z,5.31
2022-11-14T04:48:15.115Z,4.33
2022-11-14T04:49:11.827Z,4.52
2022-11-14T04:50:09.688Z,5.25
2022-11-14T04:51:06.428Z,5.67
2022-11-14T04:52:03.222Z,5.27
2022-11-14T04:52:59.972Z,5.63
2022-11-14T04:53:56.732Z,6.15
2022-11-14T04:54:53.499Z,6.20
2022-11-14T04:55:50.258Z,5.95
2022-11-14T04:56:47.018Z,6.16
2022-11-14T04:57:43.751Z,6.07
2022-11-14T04:58:40.535Z,6.10
2022-11-14T04:59:37.296Z,5.76
2022-11-14T05:00:34.060Z,6.37
2022-11-14T05:01:30.880Z,6.44
2022-11-14T05:02:31.238Z,6.68
2022-11-14T05:03:27.915Z,6.63
2022-11-14T05:04:24.672Z,5.72
2022-11-14T05:05:31.035Z,5.88
2022-11-14T05:06:45.373Z,5.94
2022-11-14T05:07:42.249Z,4.92
2022-11-14T05:08:39.326Z,5.52
2022-11-14T05:09:36.880Z,5.70
2022-11-14T05:10:33.730Z,5.50
2022-11-14T05:11:30.496Z,4.63
2022-11-14T05:12:27.245Z,5.79
2022-11-14T05:13:23.975Z,4.91
2022-11-14T05:14:20.699Z,6.19
2022-11-14T05:15:17.428Z,5.65
2022-11-14T05:16:14.421Z,5.52
2022-11-14T05:17:11.178Z,5.78
2022-11-14T05:18:07.891Z,5.79
2022-11-14T05:19:04.708Z,5.76
2022-11-14T05:20:01.466Z,5.96
2022-11-14T05:20:59.755Z,5.58
2022-11-14T05:21:56.528Z,5.95
2022-11-14T05:22:55.113Z,5.29
2022-11-14T05:23:51.866Z,5.06
2022-11-14T05:24:48.592Z,4.95
2022-11-14T05:25:45.310Z,4.75
2022-11-14T05:26:42.054Z,4.71
2022-11-14T05:27:38.961Z,4.71
2022-11-14T05:28:35.719Z,4.96
2022-11-14T05:29:32.620Z,5.39
2022-11-14T05:30:29.356Z,4.96
2022-11-14T05:31:26.079Z,6.20
2022-11-14T05:32:22.964Z,6.09
2022-11-14T05:33:19.694Z,5.12
2022-11-14T05:34:16.465Z,5.04
2022-11-14T05:35:13.365Z,4.59
2022-11-14T05:36:13.360Z,5.77
2022-11-14T05:37:10.088Z,6.11
2022-11-14T05:38:06.830Z,5.78
2022-11-14T05:39:03.657Z,5.61
2022-11-14T05:40:00.420Z,5.89
2022-11-14T05:40:57.547Z,5.98
2022-11-14T05:41:54.373Z,6.50
2022-11-14T05:42:55.314Z,6.21
2022-11-14T05:43:52.061Z,6.12
2022-11-14T05:44:48.831Z,5.60
2022-11-14T05:45:45.545Z,6.09
2022-11-14T05:46:42.377Z,5.76
2022-11-14T05:47:39.062Z,6.49
2022-11-14T05:48:35.832Z,6.44
2022-11-14T05:49:32.559Z,5.21
2022-11-14T05:50:29.439Z,5.06
2022-11-14T05:51:26.957Z,5.91
2022-11-14T05:52:23.640Z,6.12
2022-11-14T05:53:20.437Z,5.83
2022-11-14T05:54:17.182Z,6.34
2022-11-14T05:55:13.928Z,6.23
2022-11-14T05:56:13.136Z,6.35
2022-11-14T05:57:09.876Z,4.51
2022-11-14T05:58:06.621Z,5.80
2022-11-14T05:59:03.461Z,5.55
2022-11-14T06:00:00.357Z,5.92
2022-11-14T06:01:15.669Z,6.12
2022-11-14T06:02:12.452Z,6.33
2022-11-14T06:03:09.242Z,6.14
2022-11-14T06:04:06.729Z,6.45
2022-11-14T06:05:03.552Z,6.66
2022-11-14T06:06:02.445Z,5.27
2022-11-14T06:06:59.191Z,6.87
2022-11-14T06:07:58.345Z,5.37
2022-11-14T06:08:55.185Z,6.32
2022-11-14T06:09:51.916Z,5.33
2022-11-14T06:10:48.756Z,6.23
2022-11-14T06:11:45.598Z,5.92
2022-11-14T06:12:42.404Z,5.74
2022-11-14T06:13:39.394Z,5.73
2022-11-14T06:14:36.134Z,5.68
2022-11-14T06:15:32.952Z,4.75
2022-11-14T06:16:30.201Z,6.18
2022-11-14T06:17:26.995Z,5.53
2022-11-14T06:18:23.741Z,5.07
2022-11-14T06:19:21.853Z,5.86
2022-11-14T06:20:18.560Z,5.90
2022-11-14T06:21:22.011Z,5.60
2022-11-14T06:22:19.005Z,5.31
2022-11-14T06:23:18.410Z,6.32
2022-11-14T06:24:17.477Z,6.20
2022-11-14T06:25:14.274Z,5.20
2022-11-14T06:26:20.551Z,6.42
2022-11-14T06:27:17.486Z,5.57
2022-11-14T06:28:14.226Z,6.71
2022-11-14T06:29:11.050Z,4.67
2022-11-14T06:30:08.512Z,6.35
2022-11-14T06:31:05.410Z,5.91
2022-11-14T06:32:02.236Z,5.66
2022-11-14T06:32:59.702Z,4.94
2022-11-14T06:33:56.999Z,3.33
2022-11-14T06:34:53.825Z,3.60
2022-11-14T06:35:50.615Z,4.10
2022-11-14T06:36:48.645Z,5.07
2022-11-14T06:37:45.695Z,5.59
2022-11-14T06:38:43.590Z,6.56
2022-11-14T06:39:41.538Z,6.80
2022-11-14T06:40:38.471Z,5.31
2022-11-14T06:41:35.314Z,4.93
2022-11-14T06:42:32.635Z,5.51
2022-11-14T06:43:29.494Z,5.69
2022-11-14T06:44:30.828Z,3.06
2022-11-14T06:45:28.343Z,4.36
2022-11-14T06:46:25.446Z,6.08
2022-11-14T06:47:22.456Z,4.92
2022-11-14T06:48:19.199Z,5.82
2022-11-14T06:49:15.985Z,4.71
2022-11-14T06:50:12.778Z,5.69
2022-11-14T06:51:12.259Z,6.66
2022-11-14T06:52:09.080Z,6.22
2022-11-14T06:53:05.862Z,6.94
2022-11-14T06:54:02.668Z,6.50
2022-11-14T06:54:59.434Z,6.85
2022-11-14T06:56:10.824Z,6.70
2022-11-14T06:57:07.559Z,7.40
2022-11-14T06:58:04.290Z,5.72
2022-11-14T06:59:01.012Z,6.92
2022-11-14T06:59:57.795Z,6.24
2022-11-14T07:00:54.601Z,7.01
2022-11-14T07:01:51.274Z,6.97
2022-11-14T07:02:49.433Z,6.44
2022-11-14T07:03:46.853Z,6.72
2022-11-14T07:04:43.609Z,6.55
2022-11-14T07:05:40.324Z,7.21
2022-11-14T07:06:37.247Z,5.66
2022-11-14T07:07:34.021Z,7.45
2022-11-14T07:08:31.937Z,7.20
2022-11-14T07:09:28.837Z,7.51
2022-11-14T07:10:25.576Z,7.18
2022-11-14T07:11:26.232Z,6.13
2022-11-14T07:12:22.969Z,6.12
2022-11-14T07:13:20.929Z,6.81
2022-11-14T07:14:18.341Z,5.20
2022-11-14T07:15:15.270Z,6.68
2022-11-14T07:16:12.001Z,6.33
2022-11-14T07:17:08.701Z,6.41
2022-11-14T07:18:05.639Z,6.05
2022-11-14T07:19:05.069Z,4.42
2022-11-14T07:20:02.013Z,6.49
2022-11-14T07:21:04.321Z,6.49
2022-11-14T07:22:01.073Z,5.55
2022-11-14T07:22:57.950Z,5.75
2022-11-14T07:23:55.453Z,6.51
2022-11-14T07:24:52.168Z,6.78
2022-11-14T07:25:49.351Z,6.36
2022-11-14T07:26:46.538Z,6.12
2022-11-14T07:27:43.326Z,6.66
2022-11-14T07:28:42.589Z,6.59
2022-11-14T07:29:39.498Z,5.38
2022-11-14T07:30:36.412Z,5.95
2022-11-14T07:31:33.180Z,6.81
2022-11-14T07:32:30.000Z,6.46
2022-11-14T07:33:26.716Z,6.37
2022-11-14T07:34:23.461Z,6.69
2022-11-14T07:35:20.218Z,6.27
2022-11-14T07:36:18.266Z,4.89
2022-11-14T07:37:15.073Z,5.81
2022-11-14T07:38:11.818Z,6.55
2022-11-14T07:39:08.635Z,6.25
2022-11-14T07:40:05.866Z,5.47
2022-11-14T07:41:07.637Z,5.95
2022-11-14T07:42:04.605Z,6.14
2022-11-14T07:43:02.354Z,5.78
2022-11-14T07:43:59.130Z,5.97
2022-11-14T07:44:55.841Z,5.51
2022-11-14T07:45:52.601Z,5.42
2022-11-14T07:46:50.193Z,5.70
2022-11-14T07:47:46.978Z,5.81
2022-11-14T07:48:44.469Z,5.53
2022-11-14T07:49:41.204Z,6.10
2022-11-14T07:50:37.996Z,6.08
2022-11-14T07:51:34.769Z,5.42
2022-11-14T07:52:31.624Z,4.70
2022-11-14T07:53:32.330Z,6.05
2022-11-14T07:54:29.194Z,5.38
2022-11-14T07:55:26.084Z,5.70
2022-11-14T07:56:22.863Z,5.29
2022-11-14T07:57:19.813Z,4.31
2022-11-14T07:58:16.512Z,6.02
2022-11-14T07:59:13.212Z,6.24
2022-11-14T08:00:10.972Z,5.98
2022-11-14T08:01:11.332Z,5.47
2022-11-14T08:02:13.532Z,5.95
2022-11-14T08:03:10.592Z,3.89
2022-11-14T08:04:07.376Z,6.24
2022-11-14T08:05:04.449Z,5.60
2022-11-14T08:06:07.406Z,6.41
2022-11-14T08:07:04.344Z,6.07
2022-11-14T08:08:01.373Z,6.48
2022-11-14T08:08:58.127Z,6.59
2022-11-14T08:09:54.886Z,5.90
2022-11-14T08:10:51.590Z,5.98
2022-11-14T08:11:49.242Z,6.07
2022-11-14T08:12:46.445Z,6.94
2022-11-14T08:13:43.177Z,6.21
2022-11-14T08:14:39.900Z,6.61
2022-11-14T08:15:36.675Z,6.36
2022-11-14T08:16:34.237Z,4.98
2022-11-14T08:17:31.023Z,5.26
2022-11-14T08:18:27.927Z,5.14
2022-11-14T08:19:25.065Z,6.33
2022-11-14T08:20:21.768Z,5.61
2022-11-14T08:21:18.538Z,5.53
2022-11-14T08:22:15.302Z,5.89
2022-11-14T08:23:12.793Z,4.71
2022-11-14T08:24:09.958Z,5.79
2022-11-14T08:25:07.168Z,7.34
2022-11-14T08:26:03.941Z,7.63
2022-11-14T08:27:00.639Z,7.64
2022-11-14T08:27:57.383Z,7.79
2022-11-14T08:28:54.679Z,8.11
2022-11-14T08:29:51.990Z,5.36
2022-11-14T08:30:48.813Z,8.39
2022-11-14T08:31:46.816Z,7.35
2022-11-14T08:32:43.688Z,6.90
2022-11-14T08:33:40.411Z,6.93
2022-11-14T08:34:37.259Z,6.56
2022-11-14T08:35:34.645Z,6.26
2022-11-14T08:36:31.467Z,6.32
2022-11-14T08:37:28.230Z,6.25
2022-11-14T08:38:24.953Z,6.50
2022-11-14T08:39:21.683Z,6.67
2022-11-14T08:40:18.570Z,7.51
2022-11-14T08:41:15.262Z,8.04
2022-11-14T08:42:12.035Z,7.59
2022-11-14T08:43:09.760Z,8.33
2022-11-14T08:44:06.609Z,8.27
2022-11-14T08:45:04.176Z,7.41
2022-11-14T08:46:03.294Z,7.39
2022-11-14T08:47:00.465Z,7.31
2022-11-14T08:47:57.231Z,7.19
2022-11-14T08:48:54.049Z,6.55
2022-11-14T08:49:50.869Z,7.73
2022-11-14T08:50:47.611Z,8.18
2022-11-14T08:51:44.556Z,6.79
2022-11-14T08:52:41.322Z,7.61
2022-11-14T08:53:38.304Z,7.16
2022-11-14T08:54:35.230Z,7.24
2022-11-14T08:55:32.038Z,7.84
2022-11-14T08:56:28.801Z,7.47
2022-11-14T08:57:25.806Z,5.94
2022-11-14T08:58:22.597Z,7.67
2022-11-14T08:59:19.353Z,7.46
2022-11-14T09:00:16.695Z,6.80
2022-11-14T09:01:13.562Z,7.66
2022-11-14T09:02:11.541Z,8.28
2022-11-14T09:03:09.508Z,8.03
2022-11-14T09:04:06.463Z,8.43
2022-11-14T09:05:03.533Z,7.85
2022-11-14T09:06:01.260Z,7.34
2022-11-14T09:06:59.067Z,8.08
2022-11-14T09:07:55.913Z,7.11
2022-11-14T09:08:52.791Z,7.34
2022-11-14T09:09:49.566Z,7.72
2022-11-14T09:10:46.462Z,7.77
2022-11-14T09:11:43.286Z,8.72
2022-11-14T09:12:40.063Z,7.85
2022-11-14T09:13:36.900Z,8.01
2022-11-14T09:14:33.652Z,7.53
2022-11-14T09:15:30.855Z,7.23
2022-11-14T09:16:27.625Z,7.70
2022-11-14T09:17:24.430Z,6.95
2022-11-14T09:18:21.228Z,8.05
2022-11-14T09:19:17.997Z,7.83
2022-11-14T09:20:15.202Z,7.09
2022-11-14T09:21:12.745Z,7.58
2022-11-14T09:22:09.470Z,7.00
2022-11-14T09:23:06.249Z,8.60
2022-11-14T09:24:03.099Z,8.00
2022-11-14T09:24:59.856Z,8.07
2022-11-14T09:25:57.184Z,8.27
2022-11-14T09:26:57.020Z,6.97
2022-11-14T09:27:54.145Z,7.77
2022-11-14T09:28:50.977Z,7.88
2022-11-14T09:29:47.745Z,7.97
2022-11-14T09:30:44.575Z,8.76
2022-11-14T09:31:41.336Z,8.26
2022-11-14T09:32:38.337Z,8.81
2022-11-14T09:33:35.717Z,8.38
2022-11-14T09:34:32.663Z,8.32
2022-11-14T09:35:31.022Z,7.84
2022-11-14T09:36:28.017Z,7.62
2022-11-14T09:37:25.403Z,8.51
2022-11-14T09:38:22.299Z,8.57
2022-11-14T09:39:19.093Z,8.70
2022-11-14T09:40:16.562Z,6.90
2022-11-14T09:41:39.870Z,8.70
2022-11-14T09:42:42.738Z,8.35
2022-11-14T09:44:04.656Z,8.63
2022-11-14T09:45:04.973Z,7.94
2022-11-14T09:46:03.397Z,8.10
2022-11-14T09:47:04.960Z,8.28
2022-11-14T09:48:11.949Z,8.33
2022-11-14T09:49:23.834Z,8.76
2022-11-14T09:50:28.159Z,8.49
2022-11-14T09:51:33.386Z,9.54
2022-11-14T09:52:37.540Z,9.78
2022-11-14T09:53:50.040Z,9.94
2022-11-14T09:55:15.610Z,9.86
2022-11-14T09:56:23.008Z,9.56
2022-11-14T09:57:22.619Z,9.16
2022-11-14T09:58:21.396Z,9.45
2022-11-14T09:59:18.792Z,9.82
2022-11-14T10:00:21.100Z,8.62
2022-11-14T10:01:40.492Z,8.77
2022-11-14T10:03:03.195Z,9.49
2022-11-14T10:04:09.932Z,8.35
2022-11-14T10:05:44.856Z,8.75
2022-11-14T10:07:07.744Z,9.35
2022-11-14T10:08:30.498Z,8.97
2022-11-14T10:10:14.271Z,9.76
2022-11-14T10:11:38.285Z,10.32
2022-11-14T10:13:06.464Z,10.31
2022-11-14T10:14:50.454Z,10.65
2022-11-14T10:16:06.298Z,10.64
2022-11-14T10:17:15.326Z,10.69
2022-11-14T10:18:37.246Z,9.25
2022-11-14T10:20:09.592Z,9.16
2022-11-14T10:21:27.433Z,9.99
2022-11-14T10:22:41.172Z,10.49
2022-11-14T10:24:03.360Z,9.18
2022-11-14T10:25:00.074Z,9.68
2022-11-14T10:26:14.636Z,9.23
2022-11-14T10:27:20.340Z,8.69
2022-11-14T10:28:41.753Z,8.41
2022-11-14T10:29:50.658Z,8.06
2022-11-14T10:31:05.535Z,8.16
2022-11-14T10:32:29.754Z,8.55
2022-11-14T10:33:51.122Z,8.48
2022-11-14T10:34:59.712Z,8.18
2022-11-14T10:36:48.489Z,8.89
2022-11-14T10:38:03.510Z,9.17
2022-11-14T10:39:09.746Z,9.06
2022-11-14T10:40:26.703Z,8.99
2022-11-14T10:41:50.352Z,8.35
2022-11-14T10:42:50.287Z,8.30
2022-11-14T10:43:49.881Z,8.54
2022-11-14T10:45:28.500Z,8.61
2022-11-14T10:46:38.293Z,8.56
2022-11-14T10:47:41.712Z,8.16
2022-11-14T10:48:42.803Z,8.29
2022-11-14T10:49:40.881Z,8.69
2022-11-14T10:50:50.066Z,8.90
2022-11-14T10:51:52.940Z,8.93
2022-11-14T10:52:56.675Z,8.89
2022-11-14T10:54:00.562Z,8.76
2022-11-14T10:55:03.300Z,8.38
2022-11-14T10:56:04.654Z,8.25
2022-11-14T10:57:02.034Z,9.02
2022-11-14T10:57:58.845Z,6.97
2022-11-14T10:58:55.855Z,8.22
2022-11-14T10:59:55.595Z,8.56
2022-11-14T11:00:52.462Z,8.28
2022-11-14T11:01:53.936Z,8.94
2022-11-14T11:02:56.465Z,8.94
2022-11-14T11:03:53.277Z,8.53
2022-11-14T11:04:50.074Z,8.75
2022-11-14T11:05:52.008Z,8.48
2022-11-14T11:08:42.004Z,8.28
2022-11-14T11:09:59.440Z,9.29
2022-11-14T11:11:18.101Z,8.27
2022-11-14T11:12:40.018Z,9.20
2022-11-14T11:13:50.819Z,7.42
2022-11-14T11:14:50.462Z,9.32
2022-11-14T11:15:57.974Z,9.31
2022-11-14T11:17:12.890Z,9.29
2022-11-14T11:18:29.235Z,9.27
2022-11-14T11:19:27.801Z,9.06
2022-11-14T11:20:41.374Z,8.92
2022-11-14T11:21:52.914Z,8.93
2022-11-14T11:22:49.861Z,9.21
2022-11-14T11:23:58.320Z,8.22
2022-11-14T11:24:55.820Z,9.07
2022-11-14T11:26:09.219Z,9.34
2022-11-14T11:27:20.486Z,9.47
2022-11-14T11:28:22.228Z,9.60
2022-11-14T11:29:19.996Z,9.68
2022-11-14T11:30:25.161Z,9.55
2022-11-14T11:31:21.966Z,9.72
2022-11-14T11:32:29.287Z,9.77
2022-11-14T11:33:33.061Z,9.78
2022-11-14T11:34:34.622Z,9.57
2022-11-14T11:35:31.743Z,9.60
2022-11-14T11:36:37.025Z,9.50
2022-11-14T11:37:44.425Z,9.58
2022-11-14T11:38:41.806Z,8.66
2022-11-14T11:39:46.455Z,8.68
2022-11-14T11:40:54.327Z,8.90
2022-11-14T11:42:09.274Z,9.70
2022-11-14T11:43:38.495Z,9.86
2022-11-14T11:44:46.577Z,9.75
2022-11-14T11:45:49.975Z,9.90
2022-11-14T11:46:57.689Z,9.09
2022-11-14T11:48:09.100Z,9.31
2022-11-14T11:49:16.627Z,9.40
2022-11-14T11:50:21.757Z,9.33
2022-11-14T11:51:24.422Z,9.29
2022-11-14T11:52:41.986Z,9.92
2022-11-14T11:53:47.439Z,9.67
2022-11-14T11:54:55.554Z,10.06
2022-11-14T11:56:02.386Z,10.58
2022-11-14T11:57:04.308Z,10.40
2022-11-14T11:58:22.279Z,9.04
2022-11-14T11:59:59.242Z,10.24
2022-11-14T12:00:56.187Z,10.11
2022-11-14T12:01:53.262Z,10.12
2022-11-14T12:02:52.875Z,10.38
2022-11-14T12:03:52.947Z,10.19
2022-11-14T12:04:52.780Z,9.99
2022-11-14T12:06:14.536Z,10.00
2022-11-14T12:07:43.987Z,10.48
2022-11-14T12:09:42.550Z,10.49
2022-11-14T12:10:43.291Z,10.06
2022-11-14T12:11:47.150Z,10.57
2022-11-14T12:12:43.922Z,10.48
2022-11-14T12:13:43.311Z,10.46
2022-11-14T12:15:01.685Z,10.74
2022-11-14T12:16:13.044Z,10.77
2022-11-14T12:17:28.769Z,10.90
2022-11-14T12:18:31.300Z,10.87
2022-11-14T12:19:28.043Z,10.85
2022-11-14T12:20:42.912Z,10.43
2022-11-14T12:21:58.674Z,10.98
2022-11-14T12:23:18.951Z,10.86
2022-11-14T12:24:25.013Z,10.84
2022-11-14T12:25:57.430Z,10.85
2022-11-14T12:27:29.669Z,10.53
2022-11-14T12:28:44.231Z,11.12
2022-11-14T12:30:02.755Z,11.02
2022-11-14T12:31:05.929Z,11.10
2022-11-14T12:32:10.801Z,11.02
2022-11-14T12:33:21.664Z,11.04
2022-11-14T12:34:25.816Z,11.02
2022-11-14T12:35:33.340Z,11.16
2022-11-14T12:36:35.476Z,11.27
2022-11-14T12:37:38.521Z,11.07
2022-11-14T12:38:43.458Z,11.13
2022-11-14T12:39:42.065Z,11.23
2022-11-14T12:40:48.795Z,11.31
2022-11-14T12:41:45.700Z,9.63
2022-11-14T12:42:48.602Z,11.00
2022-11-14T12:43:45.540Z,11.07
2022-11-14T12:44:42.524Z,10.91
2022-11-14T12:45:42.320Z,11.25
2022-11-14T12:47:08.573Z,11.48
2022-11-14T12:48:32.049Z,10.37
2022-11-14T12:49:57.917Z,11.49
2022-11-14T12:50:56.879Z,11.15
2022-11-14T12:51:53.696Z,11.44
2022-11-14T12:52:54.840Z,11.39
2022-11-14T12:53:53.887Z,11.50
2022-11-14T12:54:51.422Z,11.52
2022-11-14T12:55:48.186Z,11.44
2022-11-14T12:57:01.403Z,11.16
2022-11-14T12:58:01.095Z,11.42
2022-11-14T12:59:12.872Z,11.41
2022-11-14T13:00:10.522Z,11.31
2022-11-14T13:01:15.895Z,11.62
2022-11-14T13:02:30.217Z,11.52
2022-11-14T13:03:51.492Z,11.15
2022-11-14T13:05:16.295Z,11.39
2022-11-14T13:06:42.571Z,11.29
2022-11-14T13:07:57.666Z,11.32
2022-11-14T13:09:30.865Z,11.44
2022-11-14T13:10:37.024Z,10.38
2022-11-14T13:11:54.548Z,11.49
2022-11-14T13:13:26.966Z,11.10
2022-11-14T13:14:42.985Z,11.57
2022-11-14T13:16:13.711Z,11.53
2022-11-14T13:17:45.946Z,11.66
2022-11-14T13:19:29.130Z,11.72
2022-11-14T13:20:48.913Z,12.14
2022-11-14T13:22:11.014Z,12.01
2022-11-14T13:23:26.312Z,11.99
2022-11-14T13:24:23.120Z,11.34
2022-11-14T13:25:24.111Z,11.45
2022-11-14T13:26:20.855Z,11.97
2022-11-14T13:27:52.302Z,11.37
2022-11-14T13:28:50.690Z,12.03
2022-11-14T13:29:48.777Z,12.27
2022-11-14T13:31:18.154Z,12.11
2022-11-14T13:32:44.609Z,12.06